sensor_id;sensor_type;location;lat;lon;timestamp;pressure;altitude;pressure_sealevel;temperature;humidity
63321;BME280;49449;48.800;9.534;2023-05-02T00:00:04;98645.19;;;11.16;44.13
63321;BME280;49449;48.800;9.534;2023-05-02T00:02:33;98645.75;;;11.07;44.34
63321;BME280;49449;48.800;9.534;2023-05-02T00:05:04;98644.16;;;11.06;44.17
63321;BME280;49449;48.800;9.534;2023-05-02T00:07:32;98647.94;;;11.10;44.07
63321;BME280;49449;48.800;9.534;2023-05-02T00:10:00;98650.13;;;11.13;43.91
63321;BME280;49449;48.800;9.534;2023-05-02T00:12:28;98647.59;;;11.06;43.95
63321;BME280;49449;48.800;9.534;2023-05-02T00:14:55;98640.00;;;10.98;44.03
63321;BME280;49449;48.800;9.534;2023-05-02T00:17:23;98639.63;;;10.94;44.12
63321;BME280;49449;48.800;9.534;2023-05-02T00:19:51;98643.19;;;10.88;44.31
63321;BME280;49449;48.800;9.534;2023-05-02T00:22:20;98643.63;;;10.85;44.42
63321;BME280;49449;48.800;9.534;2023-05-02T00:24:48;98641.56;;;10.87;44.08
63321;BME280;49449;48.800;9.534;2023-05-02T00:27:15;98641.56;;;10.87;44.11
63321;BME280;49449;48.800;9.534;2023-05-02T00:29:44;98641.94;;;10.91;44.18
63321;BME280;49449;48.800;9.534;2023-05-02T00:32:13;98643.78;;;10.90;44.14
63321;BME280;49449;48.800;9.534;2023-05-02T00:34:41;98641.63;;;10.80;44.23
63321;BME280;49449;48.800;9.534;2023-05-02T00:37:08;98638.44;;;10.78;44.11
63321;BME280;49449;48.800;9.534;2023-05-02T00:39:37;98640.38;;;10.71;44.15
63321;BME280;49449;48.800;9.534;2023-05-02T00:42:05;98638.53;;;10.72;44.34
63321;BME280;49449;48.800;9.534;2023-05-02T00:44:33;98636.47;;;10.74;43.94
63321;BME280;49449;48.800;9.534;2023-05-02T00:47:01;98637.06;;;10.76;43.91
63321;BME280;49449;48.800;9.534;2023-05-02T00:49:28;98641.63;;;10.80;43.71
63321;BME280;49449;48.800;9.534;2023-05-02T00:51:57;98641.91;;;10.79;43.64
63321;BME280;49449;48.800;9.534;2023-05-02T00:54:24;98643.03;;;10.83;43.36
63321;BME280;49449;48.800;9.534;2023-05-02T00:56:54;98645.78;;;10.76;43.52
63321;BME280;49449;48.800;9.534;2023-05-02T00:59:22;98648.28;;;10.71;43.79
63321;BME280;49449;48.800;9.534;2023-05-02T01:01:57;98650.22;;;10.64;43.72
63321;BME280;49449;48.800;9.534;2023-05-02T01:04:33;98645.03;;;10.57;43.81
63321;BME280;49449;48.800;9.534;2023-05-02T01:07:16;98642.38;;;10.57;43.96
63321;BME280;49449;48.800;9.534;2023-05-02T01:09:58;98653.09;;;10.62;43.57
63321;BME280;49449;48.800;9.534;2023-05-02T01:12:34;98654.34;;;10.60;43.66
63321;BME280;49449;48.800;9.534;2023-05-02T01:15:07;98656.28;;;10.53;43.80
63321;BME280;49449;48.800;9.534;2023-05-02T01:17:37;98654.16;;;10.43;44.11
63321;BME280;49449;48.800;9.534;2023-05-02T01:20:10;98659.59;;;10.48;43.74
63321;BME280;49449;48.800;9.534;2023-05-02T01:22:40;98655.72;;;10.51;43.50
63321;BME280;49449;48.800;9.534;2023-05-02T01:25:17;98659.59;;;10.48;43.50
63321;BME280;49449;48.800;9.534;2023-05-02T01:27:49;98665.63;;;10.37;43.70
63321;BME280;49449;48.800;9.534;2023-05-02T01:30:21;98667.69;;;10.35;43.80
63321;BME280;49449;48.800;9.534;2023-05-02T01:32:52;98669.06;;;10.37;43.65
63321;BME280;49449;48.800;9.534;2023-05-02T01:35:21;98670.44;;;10.40;43.46
63321;BME280;49449;48.800;9.534;2023-05-02T01:37:50;98670.69;;;10.38;43.56
63321;BME280;49449;48.800;9.534;2023-05-02T01:40:20;98669.50;;;10.34;43.55
63321;BME280;49449;48.800;9.534;2023-05-02T01:42:50;98677.97;;;10.24;43.80
63321;BME280;49449;48.800;9.534;2023-05-02T01:45:21;98675.47;;;10.30;43.57
63321;BME280;49449;48.800;9.534;2023-05-02T01:47:49;98677.97;;;10.24;43.74
63321;BME280;49449;48.800;9.534;2023-05-02T01:50:20;98670.72;;;10.20;43.82
63321;BME280;49449;48.800;9.534;2023-05-02T01:52:51;98674.28;;;10.25;43.41
63321;BME280;49449;48.800;9.534;2023-05-02T01:55:20;98673.72;;;10.23;43.42
63321;BME280;49449;48.800;9.534;2023-05-02T01:57:51;98671.97;;;10.17;43.59
63321;BME280;49449;48.800;9.534;2023-05-02T02:00:22;98673.88;;;10.10;43.74
63321;BME280;49449;48.800;9.534;2023-05-02T02:02:52;98682.75;;;10.16;43.86
63321;BME280;49449;48.800;9.534;2023-05-02T02:05:23;98673.56;;;10.18;43.59
63321;BME280;49449;48.800;9.534;2023-05-02T02:07:51;98680.25;;;10.21;43.44
63321;BME280;49449;48.800;9.534;2023-05-02T02:10:20;98683.03;;;10.26;43.46
63321;BME280;49449;48.800;9.534;2023-05-02T02:12:51;98684.63;;;10.27;43.69
63321;BME280;49449;48.800;9.534;2023-05-02T02:15:26;98688.91;;;10.28;43.83
63321;BME280;49449;48.800;9.534;2023-05-02T02:17:58;98688.91;;;10.28;43.85
63321;BME280;49449;48.800;9.534;2023-05-02T02:20:27;98688.69;;;10.30;43.80
63321;BME280;49449;48.800;9.534;2023-05-02T02:22:56;98695.56;;;10.31;43.80
63321;BME280;49449;48.800;9.534;2023-05-02T02:25:25;98700.41;;;10.34;43.67
63321;BME280;49449;48.800;9.534;2023-05-02T02:27:54;98701.41;;;10.33;43.71
63321;BME280;49449;48.800;9.534;2023-05-02T02:30:21;98702.81;;;10.35;43.69
63321;BME280;49449;48.800;9.534;2023-05-02T02:32:51;98702.03;;;10.35;43.90
63321;BME280;49449;48.800;9.534;2023-05-02T02:35:19;98701.66;;;10.31;44.04
63321;BME280;49449;48.800;9.534;2023-05-02T02:37:50;98708.97;;;10.29;44.23
63321;BME280;49449;48.800;9.534;2023-05-02T02:40:24;98711.63;;;10.29;44.19
63321;BME280;49449;48.800;9.534;2023-05-02T02:43:01;98715.88;;;10.30;44.26
63321;BME280;49449;48.800;9.534;2023-05-02T02:45:34;98717.94;;;10.28;44.41
63321;BME280;49449;48.800;9.534;2023-05-02T02:48:17;98730.72;;;10.31;44.64
63321;BME280;49449;48.800;9.534;2023-05-02T02:50:53;98730.94;;;10.30;44.72
63321;BME280;49449;48.800;9.534;2023-05-02T02:53:32;98730.31;;;10.28;44.89
63321;BME280;49449;48.800;9.534;2023-05-02T02:56:05;98732.38;;;10.25;44.87
63321;BME280;49449;48.800;9.534;2023-05-02T02:58:40;98738.91;;;10.23;45.15
63321;BME280;49449;48.800;9.534;2023-05-02T03:01:14;98752.94;;;10.23;45.13
63321;BME280;49449;48.800;9.534;2023-05-02T03:03:44;98746.84;;;10.23;45.36
63321;BME280;49449;48.800;9.534;2023-05-02T03:06:13;98739.72;;;10.23;45.27
63321;BME280;49449;48.800;9.534;2023-05-02T03:08:42;98734.44;;;10.23;45.29
63321;BME280;49449;48.800;9.534;2023-05-02T03:11:11;98742.38;;;10.23;45.33
63321;BME280;49449;48.800;9.534;2023-05-02T03:13:39;98751.09;;;10.24;45.47
63321;BME280;49449;48.800;9.534;2023-05-02T03:16:28;98752.78;;;10.18;45.61
63321;BME280;49449;48.800;9.534;2023-05-02T03:18:59;98760.25;;;10.21;45.39
63321;BME280;49449;48.800;9.534;2023-05-02T03:21:26;98768.19;;;10.21;45.55
63321;BME280;49449;48.800;9.534;2023-05-02T03:23:55;98771.84;;;10.20;45.29
63321;BME280;49449;48.800;9.534;2023-05-02T03:26:22;98763.91;;;10.20;45.48
63321;BME280;49449;48.800;9.534;2023-05-02T03:28:50;98764.59;;;10.16;45.42
63321;BME280;49449;48.800;9.534;2023-05-02T03:31:18;98766.03;;;10.12;45.34
63321;BME280;49449;48.800;9.534;2023-05-02T03:33:46;98766.13;;;10.05;45.45
63321;BME280;49449;48.800;9.534;2023-05-02T03:36:15;98768.91;;;10.10;45.36
63321;BME280;49449;48.800;9.534;2023-05-02T03:38:43;98774.19;;;10.10;45.55
63321;BME280;49449;48.800;9.534;2023-05-02T03:41:11;98786.78;;;10.08;45.30
63321;BME280;49449;48.800;9.534;2023-05-02T03:43:38;98772.00;;;10.07;45.26
63321;BME280;49449;48.800;9.534;2023-05-02T03:46:07;98782.81;;;9.99;45.65
63321;BME280;49449;48.800;9.534;2023-05-02T03:48:37;98786.50;;;9.98;45.47
63321;BME280;49449;48.800;9.534;2023-05-02T03:51:05;98788.09;;;9.99;45.63
63321;BME280;49449;48.800;9.534;2023-05-02T03:53:36;98789.13;;;9.98;45.75
63321;BME280;49449;48.800;9.534;2023-05-02T03:56:05;98796.22;;;9.97;45.71
63321;BME280;49449;48.800;9.534;2023-05-02T03:58:33;98801.28;;;9.99;45.58
63321;BME280;49449;48.800;9.534;2023-05-02T04:01:02;98808.63;;;9.97;45.65
63321;BME280;49449;48.800;9.534;2023-05-02T04:03:30;98811.69;;;9.94;45.58
63321;BME280;49449;48.800;9.534;2023-05-02T04:05:57;98809.72;;;9.89;45.73
63321;BME280;49449;48.800;9.534;2023-05-02T04:08:25;98812.72;;;9.93;45.52
63321;BME280;49449;48.800;9.534;2023-05-02T04:10:54;98815.78;;;9.90;45.23
63321;BME280;49449;48.800;9.534;2023-05-02T04:13:22;98810.59;;;9.76;45.50
63321;BME280;49449;48.800;9.534;2023-05-02T04:15:50;98818.03;;;9.61;45.60
63321;BME280;49449;48.800;9.534;2023-05-02T04:18:17;98812.91;;;9.66;45.39
63321;BME280;49449;48.800;9.534;2023-05-02T04:20:45;98821.22;;;9.70;45.33
63321;BME280;49449;48.800;9.534;2023-05-02T04:23:13;98826.66;;;9.75;45.03
63321;BME280;49449;48.800;9.534;2023-05-02T04:25:49;98826.03;;;9.73;45.16
63321;BME280;49449;48.800;9.534;2023-05-02T04:28:19;98838.81;;;9.76;44.90
63321;BME280;49449;48.800;9.534;2023-05-02T04:30:47;98840.66;;;9.75;44.93
63321;BME280;49449;48.800;9.534;2023-05-02T04:33:16;98838.22;;;9.74;44.98
63321;BME280;49449;48.800;9.534;2023-05-02T04:35:44;98843.31;;;9.68;45.29
63321;BME280;49449;48.800;9.534;2023-05-02T04:38:13;98839.44;;;9.71;45.20
63321;BME280;49449;48.800;9.534;2023-05-02T04:40:41;98846.34;;;9.72;45.34
63321;BME280;49449;48.800;9.534;2023-05-02T04:43:08;98856.91;;;9.72;45.33
63321;BME280;49449;48.800;9.534;2023-05-02T04:45:38;98854.84;;;9.74;45.11
63321;BME280;49449;48.800;9.534;2023-05-02T04:48:05;98853.25;;;9.73;45.13
63321;BME280;49449;48.800;9.534;2023-05-02T04:50:33;98862.59;;;9.69;45.22
63321;BME280;49449;48.800;9.534;2023-05-02T04:53:01;98859.34;;;9.74;45.00
63321;BME280;49449;48.800;9.534;2023-05-02T04:55:28;98859.91;;;9.76;45.13
63321;BME280;49449;48.800;9.534;2023-05-02T04:57:59;98862.13;;;9.79;45.29
63321;BME280;49449;48.800;9.534;2023-05-02T05:00:26;98868.81;;;9.81;45.16
63321;BME280;49449;48.800;9.534;2023-05-02T05:02:56;98864.53;;;9.87;44.95
63321;BME280;49449;48.800;9.534;2023-05-02T05:05:24;98865.13;;;9.89;44.93
63321;BME280;49449;48.800;9.534;2023-05-02T05:07:52;98877.88;;;9.92;44.96
63321;BME280;49449;48.800;9.534;2023-05-02T05:10:20;98876.44;;;9.96;44.93
63321;BME280;49449;48.800;9.534;2023-05-02T05:12:48;98873.44;;;9.93;44.87
63321;BME280;49449;48.800;9.534;2023-05-02T05:15:16;98867.69;;;9.96;44.73
63321;BME280;49449;48.800;9.534;2023-05-02T05:17:45;98870.97;;;9.98;44.57
63321;BME280;49449;48.800;9.534;2023-05-02T05:20:15;98874.41;;;9.98;44.58
63321;BME280;49449;48.800;9.534;2023-05-02T05:22:42;98878.00;;;10.04;44.67
63321;BME280;49449;48.800;9.534;2023-05-02T05:25:10;98887.75;;;10.03;44.57
63321;BME280;49449;48.800;9.534;2023-05-02T05:27:38;98880.44;;;10.05;44.61
63321;BME280;49449;48.800;9.534;2023-05-02T05:30:07;98887.94;;;10.09;44.66
63321;BME280;49449;48.800;9.534;2023-05-02T05:32:35;98887.25;;;10.13;44.50
63321;BME280;49449;48.800;9.534;2023-05-02T05:35:03;98891.91;;;10.18;44.33
63321;BME280;49449;48.800;9.534;2023-05-02T05:37:32;98895.34;;;10.18;44.78
63321;BME280;49449;48.800;9.534;2023-05-02T05:40:03;98899.84;;;10.18;44.55
63321;BME280;49449;48.800;9.534;2023-05-02T05:42:31;98917.69;;;10.22;44.46
63321;BME280;49449;48.800;9.534;2023-05-02T05:44:59;98919.66;;;10.27;44.51
63321;BME280;49449;48.800;9.534;2023-05-02T05:47:26;98927.00;;;10.25;44.59
63321;BME280;49449;48.800;9.534;2023-05-02T05:49:54;98935.50;;;10.27;44.65
63321;BME280;49449;48.800;9.534;2023-05-02T05:52:22;98937.09;;;10.35;44.58
63321;BME280;49449;48.800;9.534;2023-05-02T05:54:54;98938.47;;;10.37;44.42
63321;BME280;49449;48.800;9.534;2023-05-02T05:57:22;98941.47;;;10.41;44.53
63321;BME280;49449;48.800;9.534;2023-05-02T05:59:50;98932.91;;;10.46;44.52
63321;BME280;49449;48.800;9.534;2023-05-02T06:02:18;98935.94;;;10.49;44.58
63321;BME280;49449;48.800;9.534;2023-05-02T06:04:46;98939.38;;;10.50;44.47
63321;BME280;49449;48.800;9.534;2023-05-02T06:07:13;98939.56;;;10.30;44.75
63321;BME280;49449;48.800;9.534;2023-05-02T06:09:41;98941.16;;;10.31;44.99
63321;BME280;49449;48.800;9.534;2023-05-02T06:12:10;98944.53;;;10.38;44.86
63321;BME280;49449;48.800;9.534;2023-05-02T06:14:38;98949.84;;;10.38;45.00
63321;BME280;49449;48.800;9.534;2023-05-02T06:17:06;98951.63;;;10.44;44.81
63321;BME280;49449;48.800;9.534;2023-05-02T06:19:34;98958.25;;;10.53;45.11
63321;BME280;49449;48.800;9.534;2023-05-02T06:22:01;98964.44;;;10.66;45.03
63321;BME280;49449;48.800;9.534;2023-05-02T06:24:29;98958.88;;;10.74;44.87
63321;BME280;49449;48.800;9.534;2023-05-02T06:26:57;98961.22;;;10.82;44.84
63321;BME280;49449;48.800;9.534;2023-05-02T06:29:26;98961.78;;;10.91;44.47
63321;BME280;49449;48.800;9.534;2023-05-02T06:31:54;98961.50;;;10.99;44.59
63321;BME280;49449;48.800;9.534;2023-05-02T06:34:22;98965.31;;;11.03;44.34
63321;BME280;49449;48.800;9.534;2023-05-02T06:36:53;98964.06;;;11.06;44.64
63321;BME280;49449;48.800;9.534;2023-05-02T06:39:21;98968.16;;;11.02;44.71
63321;BME280;49449;48.800;9.534;2023-05-02T06:41:48;98968.47;;;11.12;44.79
63321;BME280;49449;48.800;9.534;2023-05-02T06:44:16;98969.66;;;11.16;44.63
63321;BME280;49449;48.800;9.534;2023-05-02T06:46:45;98978.31;;;11.23;44.64
63321;BME280;49449;48.800;9.534;2023-05-02T06:49:13;98984.78;;;11.27;44.72
63321;BME280;49449;48.800;9.534;2023-05-02T06:51:42;98979.06;;;11.30;44.73
63321;BME280;49449;48.800;9.534;2023-05-02T06:54:09;98987.34;;;11.34;44.60
63321;BME280;49449;48.800;9.534;2023-05-02T06:56:37;98986.88;;;11.37;44.67
63321;BME280;49449;48.800;9.534;2023-05-02T06:59:07;98994.19;;;11.42;44.55
63321;BME280;49449;48.800;9.534;2023-05-02T07:01:35;98987.41;;;11.46;44.51
63321;BME280;49449;48.800;9.534;2023-05-02T07:04:04;98990.41;;;11.49;44.23
63321;BME280;49449;48.800;9.534;2023-05-02T07:06:32;98993.81;;;11.56;44.10
63321;BME280;49449;48.800;9.534;2023-05-02T07:09:00;98999.22;;;11.62;44.02
63321;BME280;49449;48.800;9.534;2023-05-02T07:11:28;99001.56;;;11.70;44.09
63321;BME280;49449;48.800;9.534;2023-05-02T07:13:55;99002.06;;;11.79;44.08
63321;BME280;49449;48.800;9.534;2023-05-02T07:16:23;99005.16;;;11.75;44.20
63321;BME280;49449;48.800;9.534;2023-05-02T07:18:51;99002.06;;;11.79;44.21
63321;BME280;49449;48.800;9.534;2023-05-02T07:21:20;99004.72;;;11.79;44.11
63321;BME280;49449;48.800;9.534;2023-05-02T07:23:48;99007.09;;;11.87;44.00
63321;BME280;49449;48.800;9.534;2023-05-02T07:26:16;99009.88;;;11.92;43.70
63321;BME280;49449;48.800;9.534;2023-05-02T07:28:44;99005.66;;;12.03;43.69
63321;BME280;49449;48.800;9.534;2023-05-02T07:31:12;99002.88;;;12.09;43.15
63321;BME280;49449;48.800;9.534;2023-05-02T07:33:39;99011.88;;;12.08;43.60
63321;BME280;49449;48.800;9.534;2023-05-02T07:36:08;99008.31;;;12.14;43.53
63321;BME280;49449;48.800;9.534;2023-05-02T07:38:37;99001.69;;;12.24;43.40
63321;BME280;49449;48.800;9.534;2023-05-02T07:41:04;99014.00;;;12.30;43.41
63321;BME280;49449;48.800;9.534;2023-05-02T07:43:32;99008.81;;;12.35;42.86
63321;BME280;49449;48.800;9.534;2023-05-02T07:46:03;99006.75;;;12.37;42.80
63321;BME280;49449;48.800;9.534;2023-05-02T07:48:31;99021.75;;;12.43;43.12
63321;BME280;49449;48.800;9.534;2023-05-02T07:51:05;99019.69;;;12.45;42.69
63321;BME280;49449;48.800;9.534;2023-05-02T07:53:33;99021.88;;;12.48;42.94
63321;BME280;49449;48.800;9.534;2023-05-02T07:56:03;99013.00;;;12.55;42.84
63321;BME280;49449;48.800;9.534;2023-05-02T07:58:31;99023.03;;;12.52;42.86
63321;BME280;49449;48.800;9.534;2023-05-02T08:00:59;99023.97;;;12.70;42.90
63321;BME280;49449;48.800;9.534;2023-05-02T08:03:27;99018.22;;;12.73;42.70
63321;BME280;49449;48.800;9.534;2023-05-02T08:05:55;99024.53;;;12.72;42.46
63321;BME280;49449;48.800;9.534;2023-05-02T08:08:23;99024.94;;;12.87;42.54
63321;BME280;49449;48.800;9.534;2023-05-02T08:10:51;99022.75;;;12.96;42.34
63321;BME280;49449;48.800;9.534;2023-05-02T08:13:20;99031.84;;;13.00;42.01
63321;BME280;49449;48.800;9.534;2023-05-02T08:15:47;99021.47;;;13.11;41.69
63321;BME280;49449;48.800;9.534;2023-05-02T08:18:15;99035.53;;;13.23;41.71
63321;BME280;49449;48.800;9.534;2023-05-02T08:20:43;99031.13;;;13.29;41.69
63321;BME280;49449;48.800;9.534;2023-05-02T08:23:11;99039.53;;;13.25;41.46
63321;BME280;49449;48.800;9.534;2023-05-02T08:25:39;99044.97;;;13.31;41.97
63321;BME280;49449;48.800;9.534;2023-05-02T08:28:07;99040.91;;;13.40;41.73
63321;BME280;49449;48.800;9.534;2023-05-02T08:30:36;99052.13;;;13.42;41.57
63321;BME280;49449;48.800;9.534;2023-05-02T08:33:04;99056.00;;;13.51;41.18
63321;BME280;49449;48.800;9.534;2023-05-02T08:35:32;99053.13;;;13.53;41.22
63321;BME280;49449;48.800;9.534;2023-05-02T08:38:00;99056.81;;;13.52;41.30
63321;BME280;49449;48.800;9.534;2023-05-02T08:40:31;99061.22;;;13.46;40.68
63321;BME280;49449;48.800;9.534;2023-05-02T08:43:03;99063.41;;;13.49;41.10
63321;BME280;49449;48.800;9.534;2023-05-02T08:45:34;99059.25;;;13.53;41.15
63321;BME280;49449;48.800;9.534;2023-05-02T08:48:08;99062.91;;;13.52;41.36
63321;BME280;49449;48.800;9.534;2023-05-02T08:50:37;99065.00;;;13.50;41.16
63321;BME280;49449;48.800;9.534;2023-05-02T08:53:05;99069.97;;;13.46;41.32
63321;BME280;49449;48.800;9.534;2023-05-02T08:55:33;99068.00;;;13.54;41.49
63321;BME280;49449;48.800;9.534;2023-05-02T08:58:06;99064.66;;;13.58;41.51
63321;BME280;49449;48.800;9.534;2023-05-02T09:00:37;99064.78;;;13.63;41.67
63321;BME280;49449;48.800;9.534;2023-05-02T09:03:20;99078.06;;;13.63;41.19
63321;BME280;49449;48.800;9.534;2023-05-02T09:05:52;99074.00;;;13.73;41.37
63321;BME280;49449;48.800;9.534;2023-05-02T09:08:21;99072.56;;;13.82;41.38
63321;BME280;49449;48.800;9.534;2023-05-02T09:10:49;99068.53;;;13.91;40.94
63321;BME280;49449;48.800;9.534;2023-05-02T09:13:27;99075.09;;;13.89;40.99
63321;BME280;49449;48.800;9.534;2023-05-02T09:15:56;99070.22;;;13.97;40.02
63321;BME280;49449;48.800;9.534;2023-05-02T09:18:28;99072.88;;;13.97;40.76
63321;BME280;49449;48.800;9.534;2023-05-02T09:20:57;99075.16;;;14.06;40.64
63321;BME280;49449;48.800;9.534;2023-05-02T09:23:33;99077.00;;;14.05;40.62
63321;BME280;49449;48.800;9.534;2023-05-02T09:26:01;99072.34;;;14.12;40.54
63321;BME280;49449;48.800;9.534;2023-05-02T09:28:39;99077.28;;;14.20;40.07
63321;BME280;49449;48.800;9.534;2023-05-02T09:31:08;99079.81;;;14.27;39.23
63321;BME280;49449;48.800;9.534;2023-05-02T09:33:38;99076.81;;;14.24;39.76
63321;BME280;49449;48.800;9.534;2023-05-02T09:36:07;99082.31;;;14.34;39.56
63321;BME280;49449;48.800;9.534;2023-05-02T09:38:35;99083.19;;;14.39;39.74
63321;BME280;49449;48.800;9.534;2023-05-02T09:41:03;99076.94;;;14.46;39.07
63321;BME280;49449;48.800;9.534;2023-05-02T09:43:32;99074.31;;;14.63;39.56
63321;BME280;49449;48.800;9.534;2023-05-02T09:46:01;99074.06;;;14.81;38.59
63321;BME280;49449;48.800;9.534;2023-05-02T09:48:31;99070.84;;;14.96;38.07
63321;BME280;49449;48.800;9.534;2023-05-02T09:51:00;99074.22;;;15.08;38.00
63321;BME280;49449;48.800;9.534;2023-05-02T09:53:28;99076.84;;;15.25;37.92
63321;BME280;49449;48.800;9.534;2023-05-02T09:55:59;99068.16;;;15.30;37.21
63321;BME280;49449;48.800;9.534;2023-05-02T09:58:27;99071.38;;;15.32;37.18
63321;BME280;49449;48.800;9.534;2023-05-02T10:00:57;99067.81;;;15.26;36.13
63321;BME280;49449;48.800;9.534;2023-05-02T10:03:26;99063.66;;;15.52;36.84
63321;BME280;49449;48.800;9.534;2023-05-02T10:05:55;99065.88;;;15.83;36.02
63321;BME280;49449;48.800;9.534;2023-05-02T10:08:26;99060.41;;;15.95;35.80
63321;BME280;49449;48.800;9.534;2023-05-02T10:10:55;99068.84;;;16.08;35.67
63321;BME280;49449;48.800;9.534;2023-05-02T10:13:23;99068.78;;;16.03;35.76
63321;BME280;49449;48.800;9.534;2023-05-02T10:15:59;99065.88;;;16.32;34.96
63321;BME280;49449;48.800;9.534;2023-05-02T10:18:31;99069.97;;;16.45;34.78
63321;BME280;49449;48.800;9.534;2023-05-02T10:21:05;99065.06;;;16.64;34.50
63321;BME280;49449;48.800;9.534;2023-05-02T10:23:37;99063.91;;;16.82;34.74
63321;BME280;49449;48.800;9.534;2023-05-02T10:26:07;99070.97;;;16.98;34.66
63321;BME280;49449;48.800;9.534;2023-05-02T10:28:36;99065.19;;;17.17;34.04
63321;BME280;49449;48.800;9.534;2023-05-02T10:31:05;99070.41;;;17.39;33.79
63321;BME280;49449;48.800;9.534;2023-05-02T10:33:37;99067.97;;;17.32;33.64
63321;BME280;49449;48.800;9.534;2023-05-02T10:36:07;99071.00;;;17.09;33.30
63321;BME280;49449;48.800;9.534;2023-05-02T10:38:36;99060.56;;;16.97;33.27
63321;BME280;49449;48.800;9.534;2023-05-02T10:41:09;99060.59;;;17.02;33.18
63321;BME280;49449;48.800;9.534;2023-05-02T10:43:39;99054.84;;;17.26;33.32
63321;BME280;49449;48.800;9.534;2023-05-02T10:46:30;99050.00;;;17.22;33.64
63321;BME280;49449;48.800;9.534;2023-05-02T10:48:59;99051.41;;;17.30;33.21
63321;BME280;49449;48.800;9.534;2023-05-02T10:51:28;99047.97;;;17.40;33.49
63321;BME280;49449;48.800;9.534;2023-05-02T10:54:20;99045.13;;;17.57;32.90
63321;BME280;49449;48.800;9.534;2023-05-02T10:57:02;99036.47;;;17.39;31.56
63321;BME280;49449;48.800;9.534;2023-05-02T10:59:33;99044.16;;;17.26;31.30
63321;BME280;49449;48.800;9.534;2023-05-02T11:02:01;99042.72;;;17.08;32.67
63321;BME280;49449;48.800;9.534;2023-05-02T11:04:59;99037.28;;;16.92;32.46
63321;BME280;49449;48.800;9.534;2023-05-02T11:07:29;99043.69;;;16.91;32.56
63321;BME280;49449;48.800;9.534;2023-05-02T11:10:25;99032.56;;;17.04;32.59
63321;BME280;49449;48.800;9.534;2023-05-02T11:12:55;99033.00;;;16.86;31.99
63321;BME280;49449;48.800;9.534;2023-05-02T11:15:54;99028.16;;;16.83;32.11
63321;BME280;49449;48.800;9.534;2023-05-02T11:18:23;99025.59;;;16.98;31.52
63321;BME280;49449;48.800;9.534;2023-05-02T11:20:51;99036.06;;;17.10;33.06
63321;BME280;49449;48.800;9.534;2023-05-02T11:23:20;99026.47;;;17.09;31.92
63321;BME280;49449;48.800;9.534;2023-05-02T11:25:54;99024.84;;;17.08;31.80
63321;BME280;49449;48.800;9.534;2023-05-02T11:28:42;99027.22;;;17.04;31.37
63321;BME280;49449;48.800;9.534;2023-05-02T11:34:41;99029.34;;;17.02;31.91
63321;BME280;49449;48.800;9.534;2023-05-02T11:37:10;99026.50;;;17.14;31.66
63321;BME280;49449;48.800;9.534;2023-05-02T11:39:38;99020.88;;;17.16;32.95
63321;BME280;49449;48.800;9.534;2023-05-02T11:42:07;99025.97;;;17.22;32.40
63321;BME280;49449;48.800;9.534;2023-05-02T11:44:56;99023.53;;;17.16;31.84
63321;BME280;49449;48.800;9.534;2023-05-02T11:47:25;99027.47;;;17.03;31.70
63321;BME280;49449;48.800;9.534;2023-05-02T11:49:54;99025.13;;;17.12;31.91
63321;BME280;49449;48.800;9.534;2023-05-02T11:52:22;99023.53;;;17.16;31.49
63321;BME280;49449;48.800;9.534;2023-05-02T11:54:53;99025.59;;;17.03;31.74
63321;BME280;49449;48.800;9.534;2023-05-02T11:57:22;99022.66;;;16.95;31.57
63321;BME280;49449;48.800;9.534;2023-05-02T11:59:51;99015.97;;;16.97;32.21
63321;BME280;49449;48.800;9.534;2023-05-02T12:02:20;99009.63;;;17.09;31.56
63321;BME280;49449;48.800;9.534;2023-05-02T12:05:02;99017.72;;;17.24;31.36
63321;BME280;49449;48.800;9.534;2023-05-02T12:07:35;99009.13;;;17.17;30.00
63321;BME280;49449;48.800;9.534;2023-05-02T12:10:04;99011.09;;;17.42;31.38
63321;BME280;49449;48.800;9.534;2023-05-02T12:12:34;99007.69;;;17.52;30.98
63321;BME280;49449;48.800;9.534;2023-05-02T12:15:02;99007.41;;;17.48;31.58
63321;BME280;49449;48.800;9.534;2023-05-02T12:17:30;99008.41;;;17.37;30.68
63321;BME280;49449;48.800;9.534;2023-05-02T12:19:59;99012.84;;;17.64;31.23
63321;BME280;49449;48.800;9.534;2023-05-02T12:22:27;99008.00;;;17.55;31.32
63321;BME280;49449;48.800;9.534;2023-05-02T12:24:55;99006.13;;;17.61;31.62
63321;BME280;49449;48.800;9.534;2023-05-02T12:27:22;99010.19;;;17.11;30.97
63321;BME280;49449;48.800;9.534;2023-05-02T12:29:52;99014.59;;;17.48;31.49
63321;BME280;49449;48.800;9.534;2023-05-02T12:32:26;99011.22;;;17.63;30.68
63321;BME280;49449;48.800;9.534;2023-05-02T12:34:55;99011.00;;;17.85;31.50
63321;BME280;49449;48.800;9.534;2023-05-02T12:37:23;99007.31;;;18.06;31.09
63321;BME280;49449;48.800;9.534;2023-05-02T12:39:52;99008.34;;;17.95;30.75
63321;BME280;49449;48.800;9.534;2023-05-02T12:42:22;99014.78;;;17.99;30.48
63321;BME280;49449;48.800;9.534;2023-05-02T12:44:52;99019.84;;;18.06;30.74
63321;BME280;49449;48.800;9.534;2023-05-02T12:47:20;99025.22;;;17.95;30.02
63321;BME280;49449;48.800;9.534;2023-05-02T12:49:48;99021.19;;;18.03;30.13
63321;BME280;49449;48.800;9.534;2023-05-02T12:52:17;99022.25;;;17.92;30.32
63321;BME280;49449;48.800;9.534;2023-05-02T12:54:45;99021.13;;;17.77;29.34
63321;BME280;49449;48.800;9.534;2023-05-02T12:57:23;99040.66;;;17.88;30.61
63321;BME280;49449;48.800;9.534;2023-05-02T12:59:52;99047.06;;;17.82;30.87
63321;BME280;49449;48.800;9.534;2023-05-02T13:02:20;99043.53;;;17.61;30.37
63321;BME280;49449;48.800;9.534;2023-05-02T13:04:49;99048.47;;;17.37;32.40
63321;BME280;49449;48.800;9.534;2023-05-02T13:07:16;99053.50;;;17.23;31.84
63321;BME280;49449;48.800;9.534;2023-05-02T13:09:44;99059.59;;;17.18;31.98
63321;BME280;49449;48.800;9.534;2023-05-02T13:12:12;99060.41;;;17.19;32.34
63321;BME280;49449;48.800;9.534;2023-05-02T13:14:40;99063.63;;;17.21;32.21
63321;BME280;49449;48.800;9.534;2023-05-02T13:17:09;99059.53;;;17.08;32.50
63321;BME280;49449;48.800;9.534;2023-05-02T13:19:37;99062.72;;;17.05;32.16